Time;durP1;ratioP1;P1;durP2;ratioP2;P2;SDS_P1;SDS_P2;PMS_P1;PMS_P2;Temp;Humidity;BMP_temperature;BMP_pressure;BME280_temperature;BME280_humidity;BME280_pressure;Samples;Min_cycle;Max_cycle;Signal;HPM_P1;HPM_P2
2021/01/10 00:00:43;;;;;;;19.90;11.30;;;4.50;99.90;;;;;;4971723;28;20511;-62
2021/01/10 00:03:10;;;;;;;19.60;10.70;;;4.60;99.90;;;;;;4975068;28;20989;-63
2021/01/10 00:05:39;;;;;;;22.63;13.37;;;4.50;99.90;;;;;;4973531;28;20594;-63
2021/01/10 00:08:06;;;;;;;20.37;11.17;;;4.50;99.90;;;;;;4970446;28;20542;-63
2021/01/10 00:10:33;;;;;;;20.60;11.60;;;4.50;99.90;;;;;;4973957;28;20916;-62
2021/01/10 00:13:02;;;;;;;16.80;9.83;;;4.50;99.90;;;;;;4970116;28;20451;-62
2021/01/10 00:15:29;;;;;;;20.63;11.20;;;4.50;99.90;;;;;;4979974;28;20432;-63
2021/01/10 00:17:57;;;;;;;22.63;10.90;;;4.50;99.90;;;;;;4975903;28;20471;-62
2021/01/10 00:20:23;;;;;;;20.60;11.50;;;4.50;99.90;;;;;;4980887;28;20454;-61
2021/01/10 00:22:51;;;;;;;19.23;9.87;;;4.50;99.90;;;;;;4989375;28;20478;-62
2021/01/10 00:25:18;;;;;;;21.80;11.40;;;4.50;99.90;;;;;;4993966;28;20789;-62
2021/01/10 00:27:44;;;;;;;23.90;11.07;;;4.40;99.90;;;;;;4994623;28;20467;-62
2021/01/10 00:30:13;;;;;;;20.03;12.07;;;4.50;99.90;;;;;;4994500;28;20471;-63
2021/01/10 00:32:40;;;;;;;18.10;10.60;;;4.50;99.90;;;;;;4994693;28;20478;-62
2021/01/10 00:35:09;;;;;;;22.90;11.50;;;4.50;99.90;;;;;;4995217;28;20443;-62
2021/01/10 00:37:37;;;;;;;17.67;9.10;;;4.50;99.90;;;;;;4994506;28;20481;-61
2021/01/10 00:40:05;;;;;;;19.23;9.70;;;4.50;99.90;;;;;;4994252;28;20486;-62
2021/01/10 00:42:31;;;;;;;20.50;10.93;;;4.50;99.90;;;;;;4993907;28;20490;-62
2021/01/10 00:44:58;;;;;;;20.00;10.30;;;4.50;99.90;;;;;;4995065;28;20454;-62
2021/01/10 00:47:24;;;;;;;23.17;10.67;;;4.50;99.90;;;;;;4995231;28;20447;-62
2021/01/10 00:49:51;;;;;;;19.83;11.10;;;4.50;99.90;;;;;;4994714;28;20458;-62
2021/01/10 00:52:18;;;;;;;17.77;9.87;;;4.50;99.90;;;;;;4994819;28;20538;-62
2021/01/10 00:54:44;;;;;;;18.00;10.97;;;4.50;99.90;;;;;;4994539;28;20486;-62
2021/01/10 00:57:11;;;;;;;17.50;10.30;;;4.50;99.90;;;;;;4994654;28;20487;-62
2021/01/10 00:59:38;;;;;;;18.00;10.33;;;4.50;99.90;;;;;;4995002;28;20486;-61
2021/01/10 01:02:05;;;;;;;18.07;9.70;;;4.40;99.90;;;;;;4994693;28;20482;-62
2021/01/10 01:04:31;;;;;;;20.00;10.83;;;4.40;99.90;;;;;;4994172;28;20446;-61
2021/01/10 01:06:58;;;;;;;19.10;10.27;;;4.40;99.90;;;;;;4994912;28;20442;-61
2021/01/10 01:09:25;;;;;;;19.43;10.47;;;4.40;99.90;;;;;;4994348;28;20446;-61
2021/01/10 01:11:52;;;;;;;19.47;10.17;;;4.50;99.90;;;;;;4994883;28;20489;-61
2021/01/10 01:14:19;;;;;;;21.03;10.57;;;4.50;99.90;;;;;;4994592;28;20508;-61
2021/01/10 01:16:45;;;;;;;18.27;10.43;;;4.40;99.90;;;;;;4994372;28;20462;-62
2021/01/10 01:19:11;;;;;;;20.30;12.57;;;4.40;99.90;;;;;;4993791;28;20466;-61
2021/01/10 01:21:38;;;;;;;24.77;11.70;;;4.40;99.90;;;;;;4993662;28;20507;-62
2021/01/10 01:24:06;;;;;;;21.30;11.47;;;4.40;99.90;;;;;;4994130;28;20462;-62
2021/01/10 01:26:33;;;;;;;17.00;9.83;;;4.50;99.90;;;;;;4993830;28;20498;-62
2021/01/10 01:28:59;;;;;;;17.47;10.97;;;4.50;99.90;;;;;;4994341;28;20462;-62
2021/01/10 01:31:29;;;;;;;18.93;10.63;;;4.40;99.90;;;;;;4994186;28;20502;-62
2021/01/10 01:33:56;;;;;;;17.40;10.47;;;4.40;99.90;;;;;;4994302;28;20435;-62
2021/01/10 01:36:24;;;;;;;18.03;10.20;;;4.30;99.90;;;;;;4993608;28;20533;-62
2021/01/10 01:38:51;;;;;;;14.97;7.97;;;4.30;99.90;;;;;;4994221;28;20470;-62
2021/01/10 01:41:18;;;;;;;17.97;9.27;;;4.30;99.90;;;;;;4994220;28;20485;-62
2021/01/10 01:43:45;;;;;;;17.07;8.47;;;4.40;99.90;;;;;;4994789;28;20438;-62
2021/01/10 01:46:20;;;;;;;16.53;8.93;;;4.30;99.90;;;;;;4991760;28;20448;-62
2021/01/10 01:48:47;;;;;;;12.07;6.93;;;4.30;99.90;;;;;;4987474;28;20481;-62
2021/01/10 01:51:13;;;;;;;11.67;7.93;;;4.20;99.90;;;;;;4989272;28;20466;-62
2021/01/10 01:53:42;;;;;;;14.20;8.00;;;4.30;99.90;;;;;;4993106;28;20503;-63
2021/01/10 01:56:09;;;;;;;17.43;9.60;;;4.30;99.90;;;;;;4975398;28;20448;-62
2021/01/10 01:58:35;;;;;;;15.50;8.00;;;4.30;99.90;;;;;;4981168;28;20443;-62
2021/01/10 02:01:03;;;;;;;13.87;9.70;;;4.30;99.90;;;;;;4993336;28;20498;-62
2021/01/10 02:03:35;;;;;;;16.50;8.63;;;4.40;99.90;;;;;;4993660;28;20459;-62
2021/01/10 02:06:07;;;;;;;14.63;8.00;;;4.40;99.90;;;;;;4993228;28;20522;-62
2021/01/10 02:08:36;;;;;;;13.80;8.67;;;4.40;99.90;;;;;;4992787;28;20470;-62
2021/01/10 02:11:05;;;;;;;18.50;9.00;;;4.40;99.90;;;;;;4993282;28;20447;-62
2021/01/10 02:13:33;;;;;;;14.90;8.00;;;4.40;99.90;;;;;;4993334;28;20463;-61
2021/01/10 02:16:03;;;;;;;16.13;9.60;;;4.40;99.90;;;;;;4993462;28;20475;-61
2021/01/10 02:18:32;;;;;;;19.20;10.27;;;4.40;99.90;;;;;;4993994;28;20501;-62
2021/01/10 02:21:03;;;;;;;20.57;8.93;;;4.40;99.90;;;;;;4988406;28;20535;-62
2021/01/10 02:23:32;;;;;;;25.87;11.70;;;4.20;99.90;;;;;;4987670;28;20507;-62
2021/01/10 02:26:02;;;;;;;20.90;11.80;;;4.20;99.90;;;;;;4990584;28;20540;-62
2021/01/10 02:28:31;;;;;;;26.60;11.00;;;4.10;99.90;;;;;;4980864;28;20440;-62
2021/01/10 02:30:59;;;;;;;20.10;9.80;;;4.10;99.90;;;;;;4989371;28;20478;-62
2021/01/10 02:33:32;;;;;;;19.53;10.00;;;4.10;99.90;;;;;;4992557;28;20479;-61
2021/01/10 02:36:04;;;;;;;19.30;10.10;;;4.00;99.90;;;;;;4979188;28;20489;-61
2021/01/10 02:38:38;;;;;;;16.27;9.77;;;3.90;99.90;;;;;;4967361;28;20447;-62
2021/01/10 02:41:26;;;;;;;18.33;9.73;;;3.90;99.90;;;;;;4978977;28;20474;-61
2021/01/10 02:44:02;;;;;;;19.30;9.60;;;3.90;99.90;;;;;;4987475;28;20482;-62
2021/01/10 02:46:30;;;;;;;21.67;11.23;;;3.80;99.90;;;;;;4988840;28;20514;-62
2021/01/10 02:48:57;;;;;;;20.43;10.10;;;3.80;99.90;;;;;;4980934;28;20451;-62
2021/01/10 02:51:23;;;;;;;21.67;10.80;;;3.70;99.90;;;;;;4977814;28;20542;-61
2021/01/10 02:53:50;;;;;;;22.80;12.07;;;3.70;99.90;;;;;;4961702;28;20597;-62
2021/01/10 02:56:16;;;;;;;14.97;9.27;;;3.70;99.90;;;;;;4970228;28;20878;-62
2021/01/10 02:58:43;;;;;;;20.53;9.93;;;3.60;99.90;;;;;;4977782;28;20504;-62
2021/01/10 03:01:13;;;;;;;18.50;10.07;;;3.60;99.90;;;;;;4963275;28;20490;-62
2021/01/10 03:03:40;;;;;;;16.03;8.57;;;3.70;99.90;;;;;;4958983;29;20890;-62
2021/01/10 03:06:07;;;;;;;16.23;10.57;;;3.70;99.90;;;;;;4966605;28;20609;-62
2021/01/10 03:08:35;;;;;;;22.07;10.00;;;3.80;99.90;;;;;;4978091;28;20522;-61
2021/01/10 03:11:02;;;;;;;20.77;10.97;;;3.80;99.90;;;;;;4978287;28;20479;-62
2021/01/10 03:13:28;;;;;;;19.63;10.43;;;3.80;99.90;;;;;;4978510;28;20482;-62
2021/01/10 03:15:55;;;;;;;14.43;8.80;;;3.80;99.90;;;;;;4978099;28;20542;-62
2021/01/10 03:18:23;;;;;;;16.07;8.27;;;3.80;99.90;;;;;;4978162;28;20459;-62
2021/01/10 03:20:50;;;;;;;20.97;10.10;;;3.80;99.90;;;;;;4977978;28;20530;-62
2021/01/10 03:23:17;;;;;;;22.03;11.13;;;3.90;99.90;;;;;;4978132;28;20478;-62
2021/01/10 03:25:44;;;;;;;18.60;9.40;;;3.90;99.90;;;;;;4978257;28;20458;-62
2021/01/10 03:28:10;;;;;;;18.17;10.30;;;3.90;99.90;;;;;;4977918;28;20913;-62
2021/01/10 03:30:37;;;;;;;22.97;11.40;;;3.90;99.90;;;;;;4978025;28;20538;-62
2021/01/10 03:33:05;;;;;;;24.20;10.50;;;3.90;99.90;;;;;;4977426;28;21005;-62
2021/01/10 03:35:34;;;;;;;13.33;8.70;;;4.00;99.90;;;;;;4977921;28;20447;-62
2021/01/10 03:38:01;;;;;;;14.07;7.63;;;4.00;99.90;;;;;;4978005;28;20550;-63
2021/01/10 03:40:28;;;;;;;15.50;8.60;;;4.00;99.90;;;;;;4977664;28;21233;-62
2021/01/10 03:42:54;;;;;;;13.77;7.00;;;4.00;99.90;;;;;;4977566;28;20493;-62
2021/01/10 03:45:20;;;;;;;12.27;6.57;;;4.10;99.90;;;;;;4977659;28;20827;-62
2021/01/10 03:47:47;;;;;;;16.40;7.87;;;4.10;99.90;;;;;;4977709;28;20513;-62
2021/01/10 03:50:15;;;;;;;12.90;6.57;;;4.00;99.90;;;;;;4977740;28;20807;-62
2021/01/10 03:52:41;;;;;;;15.30;8.37;;;4.10;99.90;;;;;;4977282;28;20478;-62
2021/01/10 03:55:08;;;;;;;14.53;8.13;;;4.00;99.90;;;;;;4977114;28;20941;-63
2021/01/10 03:57:38;;;;;;;14.90;7.53;;;4.10;99.90;;;;;;4977125;28;20809;-63
2021/01/10 04:00:06;;;;;;;13.33;8.23;;;4.00;99.90;;;;;;4977310;28;20538;-62
2021/01/10 04:02:32;;;;;;;16.80;10.07;;;4.10;99.90;;;;;;4977436;28;20482;-61
2021/01/10 04:04:59;;;;;;;15.03;7.90;;;4.00;99.90;;;;;;4977624;28;20455;-62
2021/01/10 04:07:26;;;;;;;12.20;7.93;;;4.00;99.90;;;;;;4977645;28;20785;-62
2021/01/10 04:09:53;;;;;;;15.47;7.87;;;4.00;99.90;;;;;;4977156;28;20485;-61
2021/01/10 04:12:19;;;;;;;15.07;8.17;;;4.00;99.90;;;;;;4977171;28;20553;-62
2021/01/10 04:14:45;;;;;;;17.37;7.37;;;3.90;99.90;;;;;;4977023;28;20478;-63
2021/01/10 04:17:12;;;;;;;11.57;7.40;;;3.80;99.90;;;;;;4976588;28;20918;-62
2021/01/10 04:19:38;;;;;;;11.73;6.90;;;3.70;99.90;;;;;;4974423;28;20868;-62
2021/01/10 04:22:05;;;;;;;12.80;7.07;;;3.80;99.90;;;;;;4957253;29;20480;-62
2021/01/10 04:24:32;;;;;;;13.27;7.20;;;3.80;99.90;;;;;;4957450;29;20538;-65
2021/01/10 04:26:58;;;;;;;16.77;8.03;;;3.90;99.90;;;;;;4957079;29;20455;-62
2021/01/10 04:29:24;;;;;;;14.00;8.07;;;3.90;99.90;;;;;;4957218;29;20452;-62
2021/01/10 04:31:51;;;;;;;17.00;7.90;;;3.90;99.90;;;;;;4957354;29;20448;-62
2021/01/10 04:34:18;;;;;;;17.30;9.77;;;3.90;99.90;;;;;;4957048;29;20537;-62
2021/01/10 04:36:44;;;;;;;13.93;6.77;;;3.90;99.90;;;;;;4956983;29;20961;-62
2021/01/10 04:39:10;;;;;;;14.63;7.80;;;3.90;99.90;;;;;;4963234;23;20499;-63
2021/01/10 04:41:39;;;;;;;13.73;8.30;;;3.90;99.90;;;;;;4988711;23;20589;-61
2021/01/10 04:44:06;;;;;;;13.97;9.60;;;4.00;99.90;;;;;;4976247;28;20466;-62
2021/01/10 04:46:34;;;;;;;17.53;8.63;;;3.90;99.90;;;;;;4976391;28;20600;-62
2021/01/10 04:49:02;;;;;;;16.43;8.00;;;3.90;99.90;;;;;;4976458;28;20458;-62
2021/01/10 04:51:28;;;;;;;14.63;8.60;;;3.90;99.90;;;;;;4976427;28;20534;-62
2021/01/10 04:53:56;;;;;;;18.57;8.63;;;3.90;99.90;;;;;;4976487;28;20516;-62
2021/01/10 04:56:28;;;;;;;18.50;8.70;;;4.00;99.90;;;;;;4955059;28;20475;-63
2021/01/10 04:58:58;;;;;;;15.50;8.37;;;3.90;99.90;;;;;;4957038;29;20458;-62
2021/01/10 05:01:25;;;;;;;14.27;7.70;;;3.80;99.90;;;;;;4956779;29;20601;-61
2021/01/10 05:03:54;;;;;;;18.47;8.77;;;3.80;99.90;;;;;;4956844;29;20547;-62
2021/01/10 05:06:21;;;;;;;15.50;8.10;;;3.80;99.90;;;;;;4956771;29;20451;-62
2021/01/10 05:08:48;;;;;;;16.93;8.77;;;3.80;99.90;;;;;;4957249;28;20448;-62
2021/01/10 05:11:16;;;;;;;19.87;8.97;;;3.80;99.90;;;;;;4956640;29;20460;-61
2021/01/10 05:13:43;;;;;;;14.63;7.90;;;3.80;99.90;;;;;;4956638;29;20451;-62
2021/01/10 05:16:17;;;;;;;20.40;9.30;;;3.70;99.90;;;;;;4956735;29;20530;-62
2021/01/10 05:18:53;;;;;;;12.23;7.47;;;3.60;99.90;;;;;;4956811;29;20463;-62
2021/01/10 05:21:21;;;;;;;14.40;8.00;;;3.70;99.90;;;;;;4956517;29;20472;-62
2021/01/10 05:23:51;;;;;;;14.40;8.20;;;3.70;99.90;;;;;;4956173;29;20488;-62
2021/01/10 05:26:19;;;;;;;11.23;7.27;;;3.70;99.90;;;;;;4956279;29;20960;-62
2021/01/10 05:28:46;;;;;;;14.50;8.30;;;3.70;99.90;;;;;;4956307;29;20914;-62
2021/01/10 05:31:31;;;;;;;12.20;6.23;;;3.60;99.90;;;;;;4956593;29;20591;-62
2021/01/10 05:33:58;;;;;;;11.63;7.10;;;3.50;99.90;;;;;;4956613;29;20607;-62
2021/01/10 05:36:26;;;;;;;11.90;7.20;;;3.50;99.90;;;;;;4956206;29;20538;-61
2021/01/10 05:38:52;;;;;;;13.37;7.30;;;3.50;99.90;;;;;;4956533;29;20451;-62
2021/01/10 05:41:21;;;;;;;17.87;8.63;;;3.40;99.90;;;;;;4956135;29;21058;-62
2021/01/10 05:43:58;;;;;;;14.40;7.47;;;3.40;99.90;;;;;;4956084;29;20483;-62
2021/01/10 05:46:27;;;;;;;13.43;6.77;;;3.30;99.90;;;;;;4956181;29;20456;-62
2021/01/10 05:48:53;;;;;;;18.90;9.13;;;3.30;99.90;;;;;;4956135;29;20471;-62
2021/01/10 05:51:21;;;;;;;12.60;6.80;;;3.30;99.90;;;;;;4956404;29;20448;-62
2021/01/10 05:53:47;;;;;;;14.57;7.50;;;3.30;99.90;;;;;;4955984;29;20509;-62
2021/01/10 05:56:18;;;;;;;18.73;8.57;;;3.30;99.90;;;;;;4956193;29;20471;-62
2021/01/10 05:58:46;;;;;;;11.87;8.10;;;3.20;99.90;;;;;;4956017;29;20440;-62
2021/01/10 06:01:13;;;;;;;14.50;7.93;;;3.20;99.90;;;;;;4956089;29;20454;-62
2021/01/10 06:03:40;;;;;;;16.17;6.67;;;3.20;99.90;;;;;;4971193;28;20450;-62
2021/01/10 06:06:07;;;;;;;12.20;6.50;;;3.20;99.90;;;;;;4997989;28;20467;-61
2021/01/10 06:08:35;;;;;;;14.40;8.40;;;3.20;99.90;;;;;;4997600;28;20435;-61
2021/01/10 06:11:19;;;;;;;15.47;8.30;;;3.20;99.90;;;;;;4998221;28;20454;-61
2021/01/10 06:13:53;;;;;;;13.13;7.80;;;3.20;99.90;;;;;;4999218;28;20435;-61
2021/01/10 06:16:25;;;;;;;15.43;7.63;;;3.20;99.90;;;;;;4999519;28;20414;-62
2021/01/10 06:18:54;;;;;;;16.50;8.73;;;3.20;99.90;;;;;;4999557;28;20442;-61
2021/01/10 06:21:23;;;;;;;15.23;7.57;;;3.20;99.90;;;;;;4999119;28;20458;-62
2021/01/10 06:23:55;;;;;;;13.40;7.40;;;3.10;99.90;;;;;;5003051;28;20446;-61
2021/01/10 06:26:23;;;;;;;14.30;7.63;;;3.10;99.90;;;;;;5002925;28;20434;-61
2021/01/10 06:29:01;;;;;;;11.50;6.33;;;3.20;99.90;;;;;;5002552;28;20529;-61
2021/01/10 06:31:30;;;;;;;12.33;6.90;;;3.10;99.90;;;;;;5001943;28;20453;-62
2021/01/10 06:34:08;;;;;;;9.27;5.37;;;3.00;99.90;;;;;;5001535;28;20438;-62
2021/01/10 06:36:35;;;;;;;15.83;9.07;;;2.90;99.90;;;;;;5002145;28;20439;-61
2021/01/10 06:39:05;;;;;;;12.40;6.53;;;2.90;99.90;;;;;;5002811;28;20457;-60
2021/01/10 06:42:06;;;;;;;13.47;7.23;;;3.00;99.90;;;;;;5002485;28;20478;-61
2021/01/10 06:44:38;;;;;;;10.37;6.17;;;3.10;99.90;;;;;;5002759;28;20421;-61
2021/01/10 06:47:05;;;;;;;11.57;6.67;;;3.10;99.90;;;;;;5002307;28;20442;-62
2021/01/10 06:49:33;;;;;;;9.47;5.43;;;3.10;99.90;;;;;;5002898;28;20458;-61
2021/01/10 06:52:06;;;;;;;9.20;5.30;;;3.10;99.90;;;;;;5001987;28;20509;-61
2021/01/10 06:54:40;;;;;;;10.63;6.50;;;3.20;99.90;;;;;;4999554;28;20463;-62
2021/01/10 06:57:07;;;;;;;10.03;5.30;;;3.10;99.90;;;;;;4994812;28;20446;-62
2021/01/10 06:59:58;;;;;;;12.20;5.97;;;3.20;99.90;;;;;;4996386;28;20470;-62
2021/01/10 07:02:25;;;;;;;7.93;5.93;;;3.20;99.90;;;;;;4999503;28;20554;-62
2021/01/10 07:04:57;;;;;;;9.20;6.00;;;3.20;99.90;;;;;;4984037;28;20434;-62
2021/01/10 07:07:42;;;;;;;11.13;6.33;;;3.10;99.90;;;;;;4998207;28;20434;-62
2021/01/10 07:10:24;;;;;;;11.93;7.97;;;3.10;99.90;;;;;;4995434;28;20439;-62
2021/01/10 07:12:51;;;;;;;11.63;8.10;;;3.10;99.90;;;;;;4980469;28;20452;-62
2021/01/10 07:15:28;;;;;;;11.67;6.53;;;3.10;99.90;;;;;;4988604;28;20439;-63
2021/01/10 07:18:10;;;;;;;13.93;6.93;;;3.10;99.90;;;;;;4999223;28;20462;-62
2021/01/10 07:20:40;;;;;;;11.87;6.83;;;3.20;99.90;;;;;;4995734;28;20431;-63
2021/01/10 07:23:27;;;;;;;12.20;7.00;;;3.20;99.90;;;;;;4998955;28;20471;-62
2021/01/10 07:25:54;;;;;;;10.17;5.47;;;3.20;99.90;;;;;;4999348;28;20434;-63
2021/01/10 07:28:45;;;;;;;10.50;5.43;;;3.10;99.90;;;;;;4984323;28;20466;-64
2021/01/10 07:31:18;;;;;;;15.23;6.10;;;3.00;99.90;;;;;;4970349;28;20436;-62
2021/01/10 07:33:45;;;;;;;16.83;7.40;;;3.00;99.90;;;;;;4979292;28;20444;-62
2021/01/10 07:36:13;;;;;;;10.90;7.20;;;3.10;99.90;;;;;;4979946;29;20906;-62
2021/01/10 07:38:41;;;;;;;8.70;6.17;;;3.00;99.90;;;;;;4991381;28;20477;-62
2021/01/10 07:41:25;;;;;;;11.90;6.67;;;3.00;99.90;;;;;;4993169;28;20435;-62
2021/01/10 07:43:53;;;;;;;13.67;7.20;;;3.10;99.90;;;;;;4995988;28;20436;-62
2021/01/10 07:46:59;;;;;;;10.73;5.87;;;3.10;99.90;;;;;;4985699;28;20427;-62
2021/01/10 07:49:31;;;;;;;9.67;5.80;;;3.10;99.90;;;;;;4992887;28;20423;-63
2021/01/10 07:52:00;;;;;;;8.90;5.23;;;3.10;99.90;;;;;;4990906;28;20435;-62
2021/01/10 07:54:49;;;;;;;9.33;5.73;;;3.10;99.90;;;;;;4996002;28;20452;-62
2021/01/10 07:57:33;;;;;;;7.03;5.17;;;3.00;99.90;;;;;;4992260;28;20466;-63
2021/01/10 08:00:15;;;;;;;14.93;5.17;;;3.00;99.90;;;;;;4993748;28;20423;-63
2021/01/10 08:02:56;;;;;;;10.70;6.00;;;3.00;99.90;;;;;;4995505;28;20459;-62
2021/01/10 08:05:28;;;;;;;9.33;5.77;;;2.90;99.90;;;;;;4984862;28;20432;-62
2021/01/10 08:07:58;;;;;;;8.93;4.43;;;3.00;99.90;;;;;;4989051;28;20431;-63
2021/01/10 08:10:28;;;;;;;13.13;5.70;;;3.10;99.90;;;;;;4998825;28;20462;-63
2021/01/10 08:12:54;;;;;;;8.03;6.07;;;3.00;99.90;;;;;;4989327;28;20451;-62
2021/01/10 08:15:21;;;;;;;12.77;6.03;;;3.00;99.90;;;;;;4992365;28;20507;-62
2021/01/10 08:17:48;;;;;;;8.83;4.80;;;3.00;99.90;;;;;;4992085;28;20447;-61
2021/01/10 08:20:15;;;;;;;10.20;6.30;;;2.90;99.90;;;;;;4993533;28;20443;-60
2021/01/10 08:22:41;;;;;;;7.60;5.10;;;3.00;99.90;;;;;;4995886;28;20537;-62
2021/01/10 08:25:21;;;;;;;8.13;5.33;;;3.00;99.90;;;;;;4996048;28;20474;-62
2021/01/10 08:27:48;;;;;;;12.33;7.30;;;2.90;99.90;;;;;;4989153;28;20443;-62
2021/01/10 08:30:16;;;;;;;8.80;5.23;;;2.90;99.90;;;;;;4987473;28;20545;-62
2021/01/10 08:32:43;;;;;;;11.20;6.20;;;3.00;99.90;;;;;;4986208;28;20439;-63
2021/01/10 08:35:10;;;;;;;12.60;5.87;;;2.90;99.90;;;;;;4986598;28;20483;-62
2021/01/10 08:37:37;;;;;;;9.03;5.30;;;2.90;99.90;;;;;;4988127;28;20467;-61
2021/01/10 08:40:08;;;;;;;8.37;5.77;;;3.00;99.90;;;;;;4992760;28;20447;-61
2021/01/10 08:42:35;;;;;;;14.67;6.90;;;2.90;99.90;;;;;;4990631;28;20553;-61
2021/01/10 08:45:22;;;;;;;11.43;6.63;;;2.90;99.90;;;;;;4980599;28;20837;-62
2021/01/10 08:47:49;;;;;;;13.30;5.90;;;2.90;99.90;;;;;;4975347;28;20522;-61
2021/01/10 08:50:16;;;;;;;8.60;5.50;;;3.00;99.90;;;;;;4985661;28;20446;-61
2021/01/10 08:52:56;;;;;;;10.47;6.80;;;3.00;99.90;;;;;;4978024;28;20447;-62
2021/01/10 08:55:36;;;;;;;10.30;5.80;;;3.10;99.90;;;;;;4983152;28;20526;-62
2021/01/10 08:58:06;;;;;;;8.23;4.90;;;3.20;99.90;;;;;;4981868;28;20439;-63
2021/01/10 09:00:33;;;;;;;11.97;6.40;;;3.20;99.90;;;;;;4984438;28;20443;-61
2021/01/10 09:03:13;;;;;;;9.20;5.77;;;3.20;99.90;;;;;;4984858;28;20509;-61
2021/01/10 09:05:40;;;;;;;10.13;5.40;;;3.20;99.90;;;;;;4979800;28;20491;-60
2021/01/10 09:08:13;;;;;;;9.50;4.77;;;3.20;99.90;;;;;;4974274;28;20452;-58
2021/01/10 09:10:46;;;;;;;9.27;4.40;;;3.10;99.90;;;;;;4982447;28;20478;-64
2021/01/10 09:13:16;;;;;;;12.80;6.50;;;3.00;99.90;;;;;;4986298;28;20878;-61
2021/01/10 09:15:45;;;;;;;8.53;5.27;;;3.00;99.90;;;;;;4975587;28;20440;-62
2021/01/10 09:18:26;;;;;;;8.27;5.70;;;3.00;99.90;;;;;;4974968;28;20907;-62
2021/01/10 09:20:57;;;;;;;10.97;5.90;;;2.90;99.90;;;;;;4980424;28;21077;-62
2021/01/10 09:23:27;;;;;;;7.53;5.37;;;3.00;99.90;;;;;;4976693;28;20542;-62
2021/01/10 09:25:53;;;;;;;9.63;6.03;;;2.90;99.90;;;;;;4973382;28;20443;-62
2021/01/10 09:28:31;;;;;;;11.73;6.20;;;2.80;99.90;;;;;;4974248;28;20468;-63
2021/01/10 09:30:58;;;;;;;8.67;5.53;;;2.80;99.90;;;;;;4980632;28;20898;-62
2021/01/10 09:33:29;;;;;;;11.00;6.60;;;2.80;99.90;;;;;;4974483;28;20458;-63
2021/01/10 09:35:57;;;;;;;11.53;6.33;;;2.80;99.90;;;;;;4977179;28;20439;-62
2021/01/10 09:38:28;;;;;;;11.07;5.97;;;2.80;99.90;;;;;;4980240;28;20467;-63
2021/01/10 09:41:03;;;;;;;9.87;5.77;;;2.90;99.90;;;;;;4976884;28;20447;-63
2021/01/10 09:43:38;;;;;;;7.83;5.93;;;2.90;99.90;;;;;;4971500;28;20523;-62
2021/01/10 09:46:29;;;;;;;11.13;5.27;;;3.00;99.90;;;;;;4971652;28;20612;-62
2021/01/10 09:48:57;;;;;;;11.50;5.07;;;2.90;99.90;;;;;;4977112;28;20448;-62
2021/01/10 09:51:24;;;;;;;10.93;5.90;;;2.80;99.90;;;;;;4982045;28;20482;-62
2021/01/10 09:53:50;;;;;;;11.50;5.43;;;2.80;99.90;;;;;;4977163;28;20514;-63
2021/01/10 09:56:43;;;;;;;10.50;7.10;;;2.80;99.90;;;;;;4977908;28;20546;-64
2021/01/10 09:59:35;;;;;;;13.40;7.67;;;2.90;99.90;;;;;;4976519;28;20463;-62
2021/01/10 10:02:08;;;;;;;10.47;6.70;;;3.20;99.90;;;;;;4969861;28;20476;-63
2021/01/10 10:04:34;;;;;;;8.93;6.33;;;3.30;99.90;;;;;;4968689;28;20483;-63
2021/01/10 10:07:01;;;;;;;12.63;7.33;;;3.40;99.90;;;;;;4972417;28;20479;-62
2021/01/10 10:09:52;;;;;;;9.80;7.13;;;3.40;99.90;;;;;;4976211;28;20490;-63
2021/01/10 10:12:20;;;;;;;14.97;6.67;;;3.50;99.90;;;;;;4970742;28;20443;-63
2021/01/10 10:15:01;;;;;;;11.30;6.40;;;3.70;99.90;;;;;;4974758;28;20443;-63
2021/01/10 10:17:30;;;;;;;17.07;8.70;;;3.90;99.90;;;;;;4968054;28;20476;-62
2021/01/10 10:19:57;;;;;;;16.93;8.20;;;4.00;99.90;;;;;;4969807;28;20475;-62
2021/01/10 10:22:34;;;;;;;9.23;6.50;;;3.90;99.90;;;;;;4978798;28;20581;-63
2021/01/10 10:25:03;;;;;;;12.20;7.97;;;4.00;99.90;;;;;;4969837;28;20447;-62
2021/01/10 10:27:31;;;;;;;12.47;6.83;;;3.80;99.90;;;;;;4965029;28;20458;-63
2021/01/10 10:29:59;;;;;;;10.70;7.20;;;3.80;99.90;;;;;;4972625;28;20504;-62
2021/01/10 10:32:26;;;;;;;13.07;7.73;;;3.70;99.90;;;;;;4976439;28;20450;-62
2021/01/10 10:34:53;;;;;;;13.93;7.10;;;3.70;99.90;;;;;;4973808;28;20515;-63
2021/01/10 10:37:20;;;;;;;17.10;8.23;;;3.70;99.90;;;;;;4971293;28;20451;-62
2021/01/10 10:39:47;;;;;;;13.17;7.63;;;3.70;99.90;;;;;;4969608;28;20511;-63
2021/01/10 10:42:16;;;;;;;28.53;14.20;;;3.70;99.90;;;;;;4970880;28;20542;-63
2021/01/10 10:44:43;;;;;;;16.07;7.10;;;3.60;99.90;;;;;;4973937;28;20552;-62
2021/01/10 10:47:12;;;;;;;13.37;8.23;;;3.70;99.90;;;;;;4973189;28;20455;-62
2021/01/10 10:49:39;;;;;;;13.40;7.40;;;3.70;99.90;;;;;;4972700;28;20470;-63
2021/01/10 10:52:10;;;;;;;9.97;7.13;;;3.70;99.90;;;;;;4971198;28;21010;-62
2021/01/10 10:54:39;;;;;;;12.60;7.90;;;3.80;99.90;;;;;;4969789;28;20483;-62
2021/01/10 10:57:07;;;;;;;10.53;5.57;;;4.00;99.90;;;;;;4971973;28;20455;-61
2021/01/10 10:59:34;;;;;;;9.33;6.17;;;4.10;99.90;;;;;;4973044;28;20472;-62
2021/01/10 11:02:01;;;;;;;10.50;8.30;;;4.10;99.90;;;;;;4965853;28;20524;-62
2021/01/10 11:04:28;;;;;;;7.40;5.47;;;4.00;99.90;;;;;;4965698;28;20477;-62
2021/01/10 11:06:57;;;;;;;13.70;7.17;;;3.90;99.90;;;;;;4968030;28;21176;-62
2021/01/10 11:09:23;;;;;;;10.83;5.70;;;4.00;99.90;;;;;;4979273;28;20478;-62
2021/01/10 11:11:50;;;;;;;10.07;6.87;;;4.00;99.90;;;;;;4971689;28;20538;-62
2021/01/10 11:14:18;;;;;;;10.60;6.67;;;4.00;99.90;;;;;;4973338;28;20484;-62
2021/01/10 11:16:46;;;;;;;9.77;5.60;;;4.10;99.90;;;;;;4975495;28;20822;-62
2021/01/10 11:19:13;;;;;;;10.87;6.67;;;4.00;99.90;;;;;;4976643;28;21027;-63
2021/01/10 11:21:43;;;;;;;7.87;5.73;;;4.00;99.90;;;;;;4977682;28;20451;-62
2021/01/10 11:24:10;;;;;;;12.60;6.57;;;4.00;99.90;;;;;;4982334;28;20448;-62
2021/01/10 11:26:38;;;;;;;10.40;5.23;;;3.90;99.90;;;;;;4977252;28;20483;-61
2021/01/10 11:29:05;;;;;;;10.00;6.70;;;3.90;99.90;;;;;;4983752;28;20486;-61
2021/01/10 11:31:32;;;;;;;9.60;5.90;;;4.00;99.90;;;;;;4993378;28;20445;-62
2021/01/10 11:33:59;;;;;;;8.83;5.60;;;3.90;99.90;;;;;;4994698;28;20439;-63
2021/01/10 11:36:26;;;;;;;10.60;6.80;;;3.80;99.90;;;;;;4994398;28;20482;-62
2021/01/10 11:38:55;;;;;;;12.33;6.80;;;3.70;99.90;;;;;;4994081;28;20482;-62
2021/01/10 11:41:23;;;;;;;11.70;5.53;;;3.70;99.90;;;;;;4994312;28;20506;-62
2021/01/10 11:43:51;;;;;;;9.40;5.23;;;3.80;99.90;;;;;;4994825;28;20578;-63
2021/01/10 11:46:18;;;;;;;12.90;6.40;;;3.80;99.90;;;;;;4994713;28;20450;-63
2021/01/10 11:48:46;;;;;;;11.90;7.57;;;3.80;99.90;;;;;;4994531;28;20453;-63
2021/01/10 11:51:14;;;;;;;12.77;6.60;;;3.80;99.90;;;;;;4982834;28;20463;-63
2021/01/10 11:53:41;;;;;;;8.30;5.47;;;3.80;99.90;;;;;;4961843;29;20432;-63
2021/01/10 11:56:09;;;;;;;11.83;6.33;;;3.90;99.90;;;;;;4986130;28;20439;-62
2021/01/10 11:58:38;;;;;;;17.60;7.27;;;3.80;99.90;;;;;;4995656;28;20470;-62
2021/01/10 12:01:05;;;;;;;10.30;5.70;;;3.80;99.90;;;;;;4986242;28;20546;-62
2021/01/10 12:03:34;;;;;;;9.70;5.40;;;3.80;99.90;;;;;;4975556;29;20483;-62
2021/01/10 12:06:01;;;;;;;12.10;6.57;;;3.80;99.90;;;;;;4971921;29;20455;-63
2021/01/10 12:08:29;;;;;;;10.50;6.63;;;3.80;99.90;;;;;;4967554;29;20467;-62
2021/01/10 12:10:56;;;;;;;12.80;6.47;;;3.80;99.90;;;;;;4973185;28;20512;-62
2021/01/10 12:13:24;;;;;;;7.83;5.27;;;3.90;99.90;;;;;;4974341;29;20448;-62
2021/01/10 12:15:51;;;;;;;10.37;5.80;;;3.90;99.90;;;;;;4974703;29;20459;-62
2021/01/10 12:18:18;;;;;;;10.93;6.13;;;4.00;99.90;;;;;;4974911;28;20479;-62
2021/01/10 12:20:45;;;;;;;6.33;4.37;;;4.00;99.90;;;;;;4974585;29;20452;-61
2021/01/10 12:23:12;;;;;;;10.33;5.73;;;4.00;99.90;;;;;;4974472;29;20564;-62
2021/01/10 12:25:39;;;;;;;9.50;5.17;;;4.00;99.90;;;;;;4973843;29;20459;-63
2021/01/10 12:28:06;;;;;;;10.17;5.10;;;4.10;99.90;;;;;;4968327;29;20836;-63
2021/01/10 12:30:35;;;;;;;9.57;6.67;;;4.20;99.90;;;;;;4981939;28;20794;-62
2021/01/10 12:33:01;;;;;;;12.70;7.37;;;4.20;99.90;;;;;;4973429;29;20452;-62
2021/01/10 12:35:28;;;;;;;10.10;5.60;;;4.10;99.90;;;;;;4973868;29;20468;-62
2021/01/10 12:37:55;;;;;;;9.83;6.17;;;4.10;99.90;;;;;;4971255;29;20458;-64
2021/01/10 12:40:21;;;;;;;8.83;5.93;;;4.00;99.90;;;;;;4966224;29;20506;-63
2021/01/10 12:42:49;;;;;;;13.67;5.50;;;3.90;99.90;;;;;;4974639;29;20560;-62
2021/01/10 12:45:16;;;;;;;9.73;5.47;;;4.00;99.90;;;;;;4975658;29;20431;-62
2021/01/10 12:47:44;;;;;;;12.33;6.60;;;3.90;99.90;;;;;;4974089;29;20459;-63
2021/01/10 12:50:11;;;;;;;10.47;6.17;;;3.90;99.90;;;;;;4971657;29;20463;-63
2021/01/10 12:52:38;;;;;;;12.40;7.27;;;3.90;99.90;;;;;;4978757;28;20462;-63
2021/01/10 12:55:07;;;;;;;11.80;6.80;;;3.90;99.90;;;;;;4977317;28;20494;-63
2021/01/10 12:57:39;;;;;;;10.53;6.17;;;3.90;99.90;;;;;;4987323;28;20439;-63